Terminal Aerodrome Forecast
Issued by NWS

Home | Current Version | Previous Version | Text Only | Print | Product List | Glossary On
Versions: 1 2 3 4 5 6 7 8 9 10 11 12
000
FTUS44 KJAN 220520
TAFHKS
TAF
KHKS 220520Z 2206/2306 16007KT P6SM SKC
     FM220800 15011G20KT P6SM VCSH BKN015 OVC025
     FM221100 16011KT 5SM SHRA VCTS OVC007CB
     FM221600 17010KT 6SM SHRA VCTS OVC015CB
     FM222100 24012KT P6SM BKN025
     FM230100 25010KT P6SM BKN050=

USA.gov is the U.S. government's official web portal to all federal, state and local government web resources and services.